Time;durP1;ratioP1;P1;durP2;ratioP2;P2;SDS_P1;SDS_P2;PMS_P1;PMS_P2;Temp;Humidity;BMP_temperature;BMP_pressure;BME280_temperature;BME280_humidity;BME280_pressure;Samples;Min_cycle;Max_cycle;Signal;HPM_P1;HPM_P2
2023/10/20 00:01:22;;;;;;;10.47;9.10;;;7.70;66.60;;;;;;5033290;28;20687;-63
2023/10/20 00:03:48;;;;;;;11.97;9.13;;;7.70;66.50;;;;;;5033371;28;20429;-63
2023/10/20 00:06:14;;;;;;;10.17;7.53;;;7.60;65.70;;;;;;5032228;28;20587;-63
2023/10/20 00:08:39;;;;;;;12.20;9.27;;;7.60;61.50;;;;;;5031920;28;20187;-65
2023/10/20 00:11:05;;;;;;;11.40;9.03;;;7.60;62.50;;;;;;5031924;28;20186;-64
2023/10/20 00:13:32;;;;;;;13.90;9.03;;;7.60;68.40;;;;;;5032484;28;20218;-65
2023/10/20 00:15:59;;;;;;;9.73;8.70;;;7.50;57.50;;;;;;5031989;28;20423;-64
2023/10/20 00:18:25;;;;;;;10.07;9.00;;;7.50;58.60;;;;;;5032310;28;20430;-66
2023/10/20 00:20:50;;;;;;;9.73;8.70;;;7.50;58.00;;;;;;5033144;28;20515;-63
2023/10/20 00:23:16;;;;;;;8.73;7.83;;;7.60;60.90;;;;;;5032892;28;20188;-64
2023/10/20 00:25:44;;;;;;;10.80;8.87;;;7.50;53.30;;;;;;5032158;28;20198;-66
2023/10/20 00:28:09;;;;;;;10.67;8.80;;;7.50;52.00;;;;;;5032932;28;20511;-63
2023/10/20 00:30:41;;;;;;;15.60;8.70;;;7.50;49.80;;;;;;5032838;28;20438;-64
2023/10/20 00:33:07;;;;;;;8.77;7.87;;;7.50;48.50;;;;;;5032199;28;20199;-64
2023/10/20 00:35:33;;;;;;;10.53;8.37;;;7.50;45.10;;;;;;5032057;28;20460;-63
2023/10/20 00:38:01;;;;;;;10.07;8.43;;;7.50;44.30;;;;;;5032801;28;20425;-64
2023/10/20 00:40:27;;;;;;;8.40;7.67;;;7.50;35.80;;;;;;5032720;28;20409;-63
2023/10/20 00:42:53;;;;;;;8.87;8.07;;;7.50;40.30;;;;;;5032903;28;20894;-64
2023/10/20 00:45:19;;;;;;;8.50;7.43;;;7.60;30.60;;;;;;5031915;28;20460;-64
2023/10/20 00:47:45;;;;;;;8.30;7.47;;;7.50;30.50;;;;;;5032792;28;20238;-66
2023/10/20 00:50:13;;;;;;;13.93;7.30;;;7.50;30.50;;;;;;5030877;28;20652;-63
2023/10/20 00:52:44;;;;;;;7.70;7.00;;;7.50;30.50;;;;;;5032548;28;20457;-63
2023/10/20 00:55:11;;;;;;;8.17;7.30;;;7.60;30.70;;;;;;5031876;28;20415;-65
2023/10/20 00:57:38;;;;;;;8.40;6.73;;;7.60;27.90;;;;;;5032706;28;20497;-64
2023/10/20 01:00:08;;;;;;;11.20;6.90;;;7.60;20.50;;;;;;5032749;28;20441;-63
2023/10/20 01:02:36;;;;;;;7.60;6.90;;;7.60;13.40;;;;;;5032456;28;20953;-63
2023/10/20 01:05:05;;;;;;;7.10;6.40;;;7.60;8.00;;;;;;5031663;28;20475;-63
2023/10/20 01:07:32;;;;;;;7.13;6.53;;;7.60;3.10;;;;;;5032578;28;20419;-63
2023/10/20 01:10:07;;;;;;;8.67;7.23;;;7.50;1.00;;;;;;5031760;28;20845;-63
2023/10/20 01:12:33;;;;;;;7.70;7.00;;;7.50;1.00;;;;;;5032371;28;20417;-63
2023/10/20 01:14:59;;;;;;;8.23;6.50;;;7.50;1.00;;;;;;5030499;28;20420;-63
2023/10/20 01:17:30;;;;;;;10.13;7.10;;;7.60;1.00;;;;;;5031114;28;20442;-64
2023/10/20 01:19:56;;;;;;;10.47;6.67;;;7.60;1.00;;;;;;5032478;28;20388;-64
2023/10/20 01:22:22;;;;;;;7.70;6.70;;;7.60;1.00;;;;;;5032544;28;20414;-64
2023/10/20 01:24:48;;;;;;;7.23;6.53;;;7.60;1.00;;;;;;5031523;28;20419;-63
2023/10/20 01:27:14;;;;;;;9.23;6.50;;;7.60;1.00;;;;;;5031583;28;20187;-68
2023/10/20 01:29:39;;;;;;;8.40;7.60;;;7.50;1.00;;;;;;5034783;28;20414;-64
2023/10/20 01:32:05;;;;;;;7.37;6.67;;;7.60;1.00;;;;;;5036041;28;20172;-63
2023/10/20 01:34:31;;;;;;;7.70;6.90;;;7.60;1.00;;;;;;5035417;28;20203;-73
2023/10/20 01:36:57;;;;;;;7.87;6.40;;;7.60;1.00;;;;;;5035836;28;20179;-64
2023/10/20 01:39:23;;;;;;;8.33;7.53;;;7.60;1.00;;;;;;5035880;28;20246;-63
2023/10/20 01:41:48;;;;;;;8.63;6.70;;;7.60;1.00;;;;;;5035936;28;20403;-65
2023/10/20 01:44:14;;;;;;;7.97;7.20;;;7.60;1.00;;;;;;5035698;28;20202;-66
2023/10/20 01:46:48;;;;;;;8.67;7.60;;;7.60;1.00;;;;;;5034393;28;20200;-65
2023/10/20 01:49:14;;;;;;;8.27;7.40;;;7.50;1.30;;;;;;5034539;28;20171;-63
2023/10/20 01:51:40;;;;;;;10.23;6.50;;;7.60;5.60;;;;;;5036034;28;20418;-63
2023/10/20 01:54:06;;;;;;;7.67;6.87;;;7.50;9.10;;;;;;5035629;28;20207;-63
2023/10/20 01:56:32;;;;;;;7.80;7.10;;;7.60;15.70;;;;;;5034696;28;20190;-63
2023/10/20 01:58:57;;;;;;;9.17;6.60;;;7.60;14.90;;;;;;5035572;28;20374;-66
2023/10/20 02:01:23;;;;;;;9.10;8.03;;;7.50;20.10;;;;;;5035097;28;20931;-66
2023/10/20 02:03:49;;;;;;;8.73;7.87;;;7.50;26.80;;;;;;5035078;28;20532;-63
2023/10/20 02:06:16;;;;;;;9.43;8.00;;;7.50;30.50;;;;;;5034600;28;20214;-63
2023/10/20 02:08:42;;;;;;;12.47;7.83;;;7.50;30.50;;;;;;5035505;28;20866;-63
2023/10/20 02:11:08;;;;;;;9.73;7.43;;;7.60;33.10;;;;;;5035230;28;20474;-65
2023/10/20 02:13:38;;;;;;;13.73;7.83;;;7.50;42.10;;;;;;5035275;28;20446;-65
2023/10/20 02:16:07;;;;;;;9.03;7.63;;;7.50;53.50;;;;;;5034349;28;20468;-63
2023/10/20 02:18:33;;;;;;;9.50;7.70;;;7.60;64.40;;;;;;5034015;28;20420;-64
2023/10/20 02:21:03;;;;;;;11.27;7.77;;;7.60;75.90;;;;;;5035089;28;20774;-64
2023/10/20 02:23:34;;;;;;;8.63;7.43;;;7.60;79.30;;;;;;5034514;28;20472;-63
2023/10/20 02:26:01;;;;;;;9.07;8.07;;;7.60;79.40;;;;;;5034119;28;20437;-66
2023/10/20 02:28:28;;;;;;;9.03;7.80;;;7.50;79.60;;;;;;5035036;28;20760;-63
2023/10/20 02:30:56;;;;;;;8.93;7.77;;;7.50;91.10;;;;;;5034108;28;20779;-63
2023/10/20 02:33:22;;;;;;;9.63;8.00;;;7.60;96.10;;;;;;5034800;28;20442;-65
2023/10/20 02:35:48;;;;;;;9.70;7.77;;;7.60;99.90;;;;;;5034093;28;20413;-64
2023/10/20 02:38:14;;;;;;;9.33;8.10;;;7.50;99.90;;;;;;5035002;28;20413;-63
2023/10/20 02:40:48;;;;;;;9.27;7.57;;;7.60;99.90;;;;;;5034072;28;20850;-63
2023/10/20 02:43:13;;;;;;;8.83;7.30;;;7.60;99.90;;;;;;5033935;28;20184;-63
2023/10/20 02:45:51;;;;;;;7.83;7.03;;;7.60;99.90;;;;;;5033818;28;20417;-63
2023/10/20 02:48:16;;;;;;;8.43;7.60;;;7.60;99.90;;;;;;5033684;28;20175;-63
2023/10/20 02:50:42;;;;;;;9.70;8.20;;;7.60;99.90;;;;;;5034745;28;20413;-63
2023/10/20 02:53:08;;;;;;;9.73;7.00;;;7.60;99.90;;;;;;5033147;28;20256;-65
2023/10/20 02:55:34;;;;;;;13.13;8.00;;;7.60;99.90;;;;;;5033561;28;20160;-63
2023/10/20 02:58:00;;;;;;;10.70;8.30;;;7.50;99.90;;;;;;5034563;28;20171;-63
2023/10/20 03:00:27;;;;;;;8.27;7.43;;;7.60;99.90;;;;;;5032282;28;20172;-65
2023/10/20 03:02:53;;;;;;;9.17;8.00;;;7.60;99.90;;;;;;5034631;28;20410;-63
2023/10/20 03:05:20;;;;;;;12.20;7.67;;;7.60;99.90;;;;;;5033403;28;20430;-64
2023/10/20 03:07:47;;;;;;;7.80;7.13;;;7.60;99.90;;;;;;5032818;28;20431;-65
2023/10/20 03:10:12;;;;;;;11.63;7.30;;;7.60;99.90;;;;;;5034401;28;20406;-63
2023/10/20 03:12:38;;;;;;;11.90;8.37;;;7.60;99.90;;;;;;5034095;28;20463;-64
2023/10/20 03:15:06;;;;;;;8.23;7.10;;;7.60;99.90;;;;;;5033073;28;20881;-65
2023/10/20 03:17:32;;;;;;;6.73;6.00;;;7.60;99.90;;;;;;5032401;28;20195;-63
2023/10/20 03:19:58;;;;;;;6.20;5.53;;;7.60;99.90;;;;;;5034048;28;20407;-63
2023/10/20 03:22:23;;;;;;;7.30;6.63;;;7.60;99.90;;;;;;5034045;28;20198;-70
2023/10/20 03:24:49;;;;;;;8.33;6.30;;;7.60;99.90;;;;;;5033213;28;20172;-63
2023/10/20 03:27:15;;;;;;;5.33;4.83;;;7.60;99.90;;;;;;5033874;28;20249;-63
2023/10/20 03:29:40;;;;;;;5.07;4.53;;;7.60;99.90;;;;;;5033849;28;20641;-67
2023/10/20 03:32:07;;;;;;;5.43;4.13;;;7.50;99.90;;;;;;5033849;28;20513;-63
2023/10/20 03:34:34;;;;;;;5.10;4.53;;;7.60;99.90;;;;;;5032418;28;20211;-65
2023/10/20 03:37:02;;;;;;;4.03;3.73;;;7.50;99.90;;;;;;5032237;28;20437;-65
2023/10/20 03:39:32;;;;;;;4.10;3.70;;;7.50;99.90;;;;;;5033749;28;20398;-64
2023/10/20 03:41:58;;;;;;;4.57;3.10;;;7.60;99.90;;;;;;5033809;28;20774;-62
2023/10/20 03:44:24;;;;;;;4.47;4.10;;;7.60;99.90;;;;;;5033577;28;20402;-67
2023/10/20 03:46:49;;;;;;;3.90;3.50;;;7.60;99.90;;;;;;5032902;28;20199;-63
2023/10/20 03:49:16;;;;;;;5.90;3.10;;;7.60;99.90;;;;;;5015927;28;20203;-63
2023/10/20 03:51:49;;;;;;;4.80;4.20;;;7.60;99.90;;;;;;5032586;28;20202;-65
2023/10/20 03:54:16;;;;;;;3.97;3.57;;;7.50;99.90;;;;;;5033320;28;20454;-63
2023/10/20 03:56:42;;;;;;;7.83;5.10;;;7.40;99.90;;;;;;5032640;28;20524;-64
2023/10/20 03:59:13;;;;;;;7.97;4.77;;;7.40;99.90;;;;;;5033408;28;20395;-63
2023/10/20 04:01:39;;;;;;;7.50;5.23;;;7.50;99.90;;;;;;5033482;28;20456;-64
2023/10/20 04:04:11;;;;;;;5.70;4.73;;;7.50;99.90;;;;;;5033058;28;20395;-63
2023/10/20 04:06:37;;;;;;;6.20;5.60;;;7.40;99.90;;;;;;5032251;28;20450;-63
2023/10/20 04:09:09;;;;;;;7.87;5.90;;;7.40;99.90;;;;;;5032719;28;20456;-65
2023/10/20 04:11:38;;;;;;;7.33;5.40;;;7.40;99.90;;;;;;5031825;28;20176;-63
2023/10/20 04:14:08;;;;;;;7.03;5.93;;;7.40;99.90;;;;;;5032957;28;20544;-63
2023/10/20 04:16:42;;;;;;;8.60;6.10;;;7.50;99.90;;;;;;5030843;28;20434;-65
2023/10/20 04:19:14;;;;;;;13.00;6.40;;;7.40;99.90;;;;;;5033040;28;20418;-64
2023/10/20 04:21:40;;;;;;;6.40;5.80;;;7.50;99.90;;;;;;5033172;28;20402;-63
2023/10/20 04:24:12;;;;;;;8.97;6.43;;;7.50;99.90;;;;;;5033111;28;20839;-64
2023/10/20 04:26:42;;;;;;;9.00;6.10;;;7.50;99.90;;;;;;5031614;28;20422;-65
2023/10/20 05:01:41;;;;;;;8.23;4.67;;;7.40;99.90;;;;;;5032621;28;20375;-65
2023/10/20 05:06:58;;;;;;;7.60;5.73;;;7.30;99.90;;;;;;5035789;28;20438;-63
2023/10/20 05:09:25;;;;;;;5.63;4.90;;;7.40;99.90;;;;;;5035326;28;20938;-63
2023/10/20 05:11:52;;;;;;;11.33;5.60;;;7.40;99.90;;;;;;5036576;28;20498;-63
2023/10/20 05:14:18;;;;;;;4.93;4.20;;;7.40;99.90;;;;;;5036492;28;20450;-63
2023/10/20 05:16:44;;;;;;;6.20;4.07;;;7.30;99.90;;;;;;5035394;28;20569;-63
2023/10/20 05:19:10;;;;;;;7.57;3.80;;;7.30;99.90;;;;;;5035733;28;20409;-65
2023/10/20 05:21:38;;;;;;;6.20;3.90;;;7.30;99.90;;;;;;5036325;28;20176;-63
2023/10/20 05:24:04;;;;;;;3.70;3.40;;;7.20;99.90;;;;;;5036275;28;20422;-63
2023/10/20 05:26:31;;;;;;;6.43;3.93;;;7.20;99.90;;;;;;5035308;28;20492;-63
2023/10/20 05:28:57;;;;;;;5.93;3.57;;;7.20;99.90;;;;;;5036343;28;20453;-63
2023/10/20 05:31:27;;;;;;;4.77;3.67;;;7.20;99.90;;;;;;5036135;28;20407;-64
2023/10/20 05:33:56;;;;;;;4.90;3.50;;;7.20;99.90;;;;;;5035906;28;20480;-63
2023/10/20 05:36:21;;;;;;;5.03;3.77;;;7.20;99.90;;;;;;5035126;28;20953;-66
2023/10/20 05:38:47;;;;;;;8.30;4.43;;;7.10;99.90;;;;;;5035375;28;20425;-65
2023/10/20 05:41:13;;;;;;;13.23;4.20;;;7.10;99.90;;;;;;5034422;28;20624;-64
2023/10/20 05:43:38;;;;;;;7.87;3.53;;;7.20;99.90;;;;;;5036017;28;20171;-63
2023/10/20 05:46:05;;;;;;;5.17;3.83;;;7.10;99.90;;;;;;5034902;28;20608;-63
2023/10/20 05:48:31;;;;;;;4.93;3.70;;;7.10;99.90;;;;;;5034792;28;20532;-63
2023/10/20 05:50:57;;;;;;;5.00;3.20;;;7.20;99.90;;;;;;5035778;28;20741;-64
2023/10/20 05:53:24;;;;;;;6.93;4.60;;;7.20;99.90;;;;;;5035673;28;20843;-63
2023/10/20 05:55:50;;;;;;;3.33;2.67;;;7.20;99.90;;;;;;5034794;28;20887;-63
2023/10/20 05:58:16;;;;;;;6.37;3.40;;;7.20;99.90;;;;;;5034517;28;20421;-63
2023/10/20 06:00:42;;;;;;;5.07;3.63;;;7.20;99.90;;;;;;5034710;28;20678;-64
2023/10/20 06:03:09;;;;;;;5.23;3.80;;;7.20;99.90;;;;;;5035405;28;20184;-65
2023/10/20 06:05:35;;;;;;;3.50;3.20;;;7.20;99.90;;;;;;5034546;28;20436;-63
2023/10/20 06:08:01;;;;;;;4.80;3.50;;;7.20;99.90;;;;;;5035434;28;20403;-63
2023/10/20 06:10:27;;;;;;;9.13;3.27;;;7.20;99.90;;;;;;5035324;28;20402;-63
2023/10/20 06:12:54;;;;;;;6.90;4.23;;;7.20;99.90;;;;;;5035302;28;20470;-63
2023/10/20 06:15:20;;;;;;;4.70;3.77;;;7.20;99.90;;;;;;5033161;28;20172;-64
2023/10/20 06:17:47;;;;;;;4.70;4.10;;;7.20;99.90;;;;;;5034966;28;20421;-63
2023/10/20 06:20:14;;;;;;;5.80;4.00;;;7.20;99.90;;;;;;5035036;28;20779;-63
2023/10/20 06:22:42;;;;;;;6.13;4.00;;;7.20;99.90;;;;;;5035171;28;20402;-64
2023/10/20 06:25:14;;;;;;;7.60;3.10;;;7.20;99.90;;;;;;5034229;28;20403;-63
2023/10/20 06:27:45;;;;;;;5.27;3.53;;;7.20;99.90;;;;;;5033782;28;20439;-64
2023/10/20 06:30:14;;;;;;;5.50;3.77;;;7.20;99.90;;;;;;5035160;28;20410;-63
2023/10/20 06:32:44;;;;;;;4.73;2.97;;;7.20;99.90;;;;;;5035119;28;20408;-65
2023/10/20 06:35:13;;;;;;;4.13;3.43;;;7.30;99.90;;;;;;5034084;28;20898;-65
2023/10/20 06:40:12;;;;;;;3.90;3.60;;;7.30;99.90;;;;;;5034544;28;20406;-63
2023/10/20 06:42:37;;;;;;;3.23;2.93;;;7.40;99.90;;;;;;5034774;28;20407;-63
2023/10/20 06:45:04;;;;;;;8.47;2.90;;;7.40;99.90;;;;;;5034135;28;20471;-64
2023/10/20 06:47:30;;;;;;;6.33;3.00;;;7.40;99.90;;;;;;5034767;28;20180;-63
2023/10/20 06:49:56;;;;;;;5.27;3.10;;;7.40;99.90;;;;;;5034698;28;20401;-63
2023/10/20 06:52:22;;;;;;;7.17;3.30;;;7.40;99.90;;;;;;5034784;28;20168;-68
2023/10/20 06:54:49;;;;;;;7.27;2.83;;;7.30;99.90;;;;;;5032309;28;20572;-64
2023/10/20 06:57:15;;;;;;;3.83;2.97;;;7.30;99.90;;;;;;5033513;28;20192;-64
2023/10/20 06:59:42;;;;;;;6.13;3.00;;;7.40;99.90;;;;;;5034605;28;20406;-65
2023/10/20 07:02:07;;;;;;;2.60;2.40;;;7.40;99.90;;;;;;5033442;28;20410;-63
2023/10/20 07:04:33;;;;;;;3.20;2.70;;;7.40;99.90;;;;;;5033423;28;20409;-65
2023/10/20 07:06:59;;;;;;;5.33;2.50;;;7.30;99.90;;;;;;5034358;28;20202;-63
2023/10/20 07:09:25;;;;;;;4.50;2.93;;;7.40;99.90;;;;;;5034187;28;20175;-64
2023/10/20 07:11:52;;;;;;;3.03;2.83;;;7.40;99.90;;;;;;5034232;28;20167;-63
2023/10/20 07:14:17;;;;;;;3.90;3.23;;;7.50;99.90;;;;;;5033613;28;20775;-63
2023/10/20 07:16:43;;;;;;;2.87;2.60;;;7.50;99.90;;;;;;5033186;28;20435;-63
2023/10/20 07:19:11;;;;;;;3.40;2.40;;;7.50;99.90;;;;;;5034319;28;20635;-63
2023/10/20 07:21:36;;;;;;;2.70;2.50;;;7.50;99.90;;;;;;5034092;28;20187;-63
2023/10/20 07:24:03;;;;;;;2.47;2.27;;;7.50;99.90;;;;;;5034037;28;20395;-63
2023/10/20 07:26:29;;;;;;;6.37;3.33;;;7.50;99.90;;;;;;5032779;28;20195;-65
2023/10/20 07:28:55;;;;;;;2.80;2.57;;;7.50;99.90;;;;;;5034043;28;20403;-63
2023/10/20 07:31:26;;;;;;;4.23;2.57;;;7.50;99.90;;;;;;5033467;28;20484;-67
2023/10/20 07:33:52;;;;;;;6.30;4.33;;;7.50;99.90;;;;;;5033429;28;20448;-63
2023/10/20 07:36:18;;;;;;;3.33;2.80;;;7.50;99.90;;;;;;5033460;28;20441;-64
2023/10/20 07:38:44;;;;;;;3.20;2.43;;;7.40;99.90;;;;;;5033690;28;20402;-63
2023/10/20 07:41:12;;;;;;;8.23;3.30;;;7.50;99.90;;;;;;5033715;28;20503;-63
2023/10/20 07:43:38;;;;;;;4.90;3.37;;;7.40;99.90;;;;;;5033903;28;20736;-65
2023/10/20 07:46:05;;;;;;;5.37;2.50;;;7.40;99.90;;;;;;5032551;28;21001;-63
2023/10/20 07:48:32;;;;;;;5.53;3.17;;;7.40;99.90;;;;;;5033556;28;20409;-63
2023/10/20 07:51:01;;;;;;;3.60;2.90;;;7.50;99.90;;;;;;5032910;28;20414;-63
2023/10/20 07:53:29;;;;;;;8.57;3.43;;;7.50;99.90;;;;;;5032159;28;20457;-64
2023/10/20 07:55:55;;;;;;;5.93;4.63;;;7.40;99.90;;;;;;5032658;28;20479;-63
2023/10/20 07:58:21;;;;;;;8.00;2.50;;;7.50;99.90;;;;;;5033518;28;20929;-65
2023/10/20 08:00:47;;;;;;;2.77;2.57;;;7.50;99.90;;;;;;5033466;28;20408;-63
2023/10/20 08:03:12;;;;;;;4.57;3.00;;;7.50;99.90;;;;;;5033439;28;20955;-63
2023/10/20 08:05:39;;;;;;;2.60;2.40;;;7.50;99.90;;;;;;5032218;28;20180;-63
2023/10/20 08:08:05;;;;;;;8.50;2.63;;;7.50;99.90;;;;;;5032272;28;20855;-64
2023/10/20 08:10:32;;;;;;;6.70;2.60;;;7.50;99.90;;;;;;5033294;28;20465;-64
2023/10/20 08:12:59;;;;;;;3.77;2.83;;;7.60;99.90;;;;;;5033176;28;20484;-63
2023/10/20 08:15:28;;;;;;;5.50;2.47;;;7.50;99.90;;;;;;5032408;28;20815;-63
2023/10/20 08:17:54;;;;;;;2.53;2.43;;;7.60;99.90;;;;;;5032955;28;20422;-63
2023/10/20 08:20:20;;;;;;;3.77;2.53;;;7.50;99.90;;;;;;5033080;28;20394;-64
2023/10/20 08:22:46;;;;;;;2.93;2.63;;;7.60;99.90;;;;;;5031631;28;20398;-65
2023/10/20 08:25:12;;;;;;;2.40;2.17;;;7.50;99.90;;;;;;5031548;28;20402;-64
2023/10/20 08:27:38;;;;;;;3.63;2.60;;;7.50;99.90;;;;;;5033028;28;20187;-63
2023/10/20 08:30:05;;;;;;;3.80;2.53;;;7.50;99.90;;;;;;5032804;28;20246;-63
2023/10/20 08:32:31;;;;;;;2.93;2.70;;;7.60;99.90;;;;;;5032822;28;20399;-63
2023/10/20 08:34:57;;;;;;;5.27;3.60;;;7.50;99.90;;;;;;5031805;28;20461;-64
2023/10/20 08:37:22;;;;;;;7.67;2.70;;;7.60;99.90;;;;;;5032778;28;20203;-64
2023/10/20 08:39:48;;;;;;;3.90;2.70;;;7.60;99.90;;;;;;5032257;28;20759;-63
2023/10/20 08:42:16;;;;;;;3.10;2.40;;;7.70;99.90;;;;;;5031854;28;20174;-63
2023/10/20 08:44:43;;;;;;;10.83;3.23;;;7.60;99.90;;;;;;5031987;28;20160;-64
2023/10/20 08:47:12;;;;;;;7.70;3.97;;;7.50;99.90;;;;;;5032791;28;20505;-63
2023/10/20 08:49:42;;;;;;;2.97;2.67;;;7.50;99.90;;;;;;5032692;28;20425;-63
2023/10/20 08:52:10;;;;;;;3.00;2.70;;;7.50;99.90;;;;;;5032869;28;20452;-63
2023/10/20 08:54:37;;;;;;;7.30;3.33;;;7.60;99.90;;;;;;5031936;28;21116;-63
2023/10/20 08:57:03;;;;;;;3.40;3.10;;;7.60;99.90;;;;;;5032617;28;20422;-63
2023/10/20 08:59:29;;;;;;;3.40;3.00;;;7.50;99.90;;;;;;5032711;28;20398;-63
2023/10/20 09:01:56;;;;;;;3.60;2.80;;;7.60;99.90;;;;;;5032101;28;20909;-65
2023/10/20 09:04:23;;;;;;;6.10;2.30;;;7.60;99.90;;;;;;5032451;28;20641;-64
2023/10/20 09:06:49;;;;;;;2.93;2.40;;;7.60;99.90;;;;;;5030707;28;20973;-64
2023/10/20 09:09:16;;;;;;;7.70;2.70;;;7.60;99.90;;;;;;5031430;28;20445;-63
2023/10/20 09:11:42;;;;;;;3.80;2.27;;;7.60;99.90;;;;;;5032638;28;20402;-63
2023/10/20 09:14:08;;;;;;;2.60;2.40;;;7.60;99.90;;;;;;5032512;28;20449;-64
2023/10/20 09:16:35;;;;;;;2.77;2.37;;;7.60;99.90;;;;;;5031505;28;20418;-63
2023/10/20 09:19:03;;;;;;;9.80;2.30;;;7.60;99.90;;;;;;5032782;28;20660;-63
2023/10/20 09:21:28;;;;;;;5.57;2.90;;;7.50;99.90;;;;;;5032171;28;20937;-63
2023/10/20 09:24:02;;;;;;;2.73;2.43;;;7.50;99.90;;;;;;5032411;28;20430;-63
2023/10/20 09:26:30;;;;;;;4.20;2.70;;;7.50;99.90;;;;;;5031511;28;20191;-65
2023/10/20 09:28:56;;;;;;;4.77;2.63;;;7.50;99.90;;;;;;5032318;28;20399;-66
2023/10/20 09:31:24;;;;;;;3.37;3.10;;;7.50;99.90;;;;;;5032361;28;20386;-63
2023/10/20 09:33:50;;;;;;;5.90;2.90;;;7.60;99.90;;;;;;5032462;28;20511;-62
2023/10/20 09:36:17;;;;;;;7.53;2.90;;;7.60;99.90;;;;;;5031548;28;20555;-63
2023/10/20 09:38:52;;;;;;;4.80;3.27;;;7.50;99.90;;;;;;5031759;28;20406;-64
2023/10/20 09:41:25;;;;;;;5.00;2.80;;;7.50;99.90;;;;;;5032324;28;20490;-63
2023/10/20 09:44:06;;;;;;;4.93;3.40;;;7.50;99.90;;;;;;5032202;28;20401;-63
2023/10/20 09:47:04;;;;;;;7.93;2.60;;;7.50;99.90;;;;;;5031459;28;20418;-64
2023/10/20 09:49:31;;;;;;;3.93;2.27;;;7.50;99.90;;;;;;5032899;28;20410;-63
2023/10/20 09:51:57;;;;;;;4.13;2.33;;;7.60;99.90;;;;;;5035720;28;20406;-64
2023/10/20 09:54:28;;;;;;;3.47;2.93;;;7.50;99.90;;;;;;5035785;28;20458;-74
2023/10/20 09:56:55;;;;;;;3.70;3.33;;;7.50;99.90;;;;;;5035211;28;20430;-63
2023/10/20 09:59:27;;;;;;;6.80;3.37;;;7.60;99.90;;;;;;5035060;28;20369;-63
2023/10/20 10:01:54;;;;;;;4.73;2.77;;;7.50;99.90;;;;;;5035584;28;20410;-63
2023/10/20 10:04:28;;;;;;;3.80;3.43;;;7.50;99.90;;;;;;5035604;28;20907;-64
2023/10/20 10:06:55;;;;;;;5.00;4.50;;;7.60;99.90;;;;;;5034813;28;20439;-63
2023/10/20 10:09:22;;;;;;;4.23;2.90;;;7.50;99.90;;;;;;5035511;28;20390;-63
2023/10/20 10:11:48;;;;;;;5.53;3.53;;;7.50;99.90;;;;;;5035444;28;20423;-65
2023/10/20 10:14:22;;;;;;;10.90;3.53;;;7.50;99.90;;;;;;5034995;28;20543;-67
2023/10/20 10:16:53;;;;;;;5.17;3.60;;;7.50;99.90;;;;;;5034181;28;20421;-63
2023/10/20 10:19:20;;;;;;;6.80;3.20;;;7.60;99.90;;;;;;5035300;28;20452;-63
2023/10/20 10:21:51;;;;;;;8.50;2.90;;;7.60;99.90;;;;;;5035146;28;20405;-65
2023/10/20 10:24:18;;;;;;;6.23;3.47;;;7.50;99.90;;;;;;5035369;28;20468;-63
2023/10/20 10:26:45;;;;;;;6.10;2.97;;;7.60;99.90;;;;;;5034406;28;20453;-63
2023/10/20 10:29:11;;;;;;;7.83;3.33;;;7.60;99.90;;;;;;5035013;28;20407;-63
2023/10/20 10:31:37;;;;;;;9.70;3.43;;;7.60;99.90;;;;;;5033841;28;20414;-63
2023/10/20 10:34:04;;;;;;;6.53;3.33;;;7.60;99.90;;;;;;5034658;28;20993;-63
2023/10/20 10:36:50;;;;;;;8.80;3.80;;;7.60;99.90;;;;;;5033955;28;20422;-63
2023/10/20 10:39:29;;;;;;;8.63;3.40;;;7.60;99.90;;;;;;5034662;28;20468;-63
2023/10/20 10:42:02;;;;;;;6.73;3.70;;;7.70;99.90;;;;;;5034817;28;20809;-63
2023/10/20 10:44:35;;;;;;;5.97;3.20;;;7.60;99.90;;;;;;5034735;28;20422;-64
2023/10/20 10:47:05;;;;;;;3.70;3.40;;;7.70;99.90;;;;;;5034670;28;20433;-64
2023/10/20 10:49:32;;;;;;;5.20;3.03;;;7.70;99.90;;;;;;5034877;28;20405;-63
2023/10/20 10:52:03;;;;;;;4.43;2.67;;;7.70;99.90;;;;;;5034704;28;20481;-63
2023/10/20 10:54:33;;;;;;;3.80;2.70;;;7.70;99.90;;;;;;5033597;28;20454;-80
2023/10/20 10:57:05;;;;;;;7.70;3.07;;;7.70;96.40;;;;;;5034806;28;20414;-64
2023/10/20 10:59:32;;;;;;;4.43;2.87;;;7.70;91.90;;;;;;5034724;28;20429;-63
2023/10/20 11:02:01;;;;;;;5.23;3.60;;;7.70;83.50;;;;;;5032668;28;20436;-63
2023/10/20 11:04:27;;;;;;;8.37;3.63;;;7.70;79.50;;;;;;5034221;28;20928;-64
2023/10/20 11:06:53;;;;;;;16.37;3.60;;;7.70;79.50;;;;;;5033784;28;20453;-63
2023/10/20 11:09:20;;;;;;;5.33;3.87;;;7.70;86.30;;;;;;5034320;28;20906;-66
2023/10/20 11:11:49;;;;;;;3.97;3.47;;;7.70;90.20;;;;;;5033774;28;20644;-65
2023/10/20 11:14:19;;;;;;;7.90;3.20;;;7.70;90.50;;;;;;5034255;28;20537;-63
2023/10/20 11:16:45;;;;;;;7.73;2.90;;;7.70;88.70;;;;;;5033292;28;20425;-63
2023/10/20 11:19:13;;;;;;;11.03;3.60;;;7.60;90.10;;;;;;5034098;28;20445;-64
2023/10/20 11:21:49;;;;;;;3.07;2.80;;;7.60;93.10;;;;;;5032897;28;20728;-63
2023/10/20 11:24:36;;;;;;;5.90;3.33;;;7.50;96.70;;;;;;5034178;28;20497;-63
2023/10/20 11:27:13;;;;;;;7.13;3.60;;;7.50;99.90;;;;;;5033389;28;20441;-63
2023/10/20 11:29:42;;;;;;;4.10;3.80;;;7.50;99.90;;;;;;5033963;28;20463;-63
2023/10/20 11:32:13;;;;;;;4.50;2.87;;;7.50;99.90;;;;;;5033862;28;20406;-63
2023/10/20 11:34:40;;;;;;;6.20;3.47;;;7.40;99.90;;;;;;5033178;28;20439;-64
2023/10/20 11:37:06;;;;;;;3.40;3.10;;;7.40;99.90;;;;;;5033796;28;20523;-65
2023/10/20 11:39:36;;;;;;;3.87;2.70;;;7.40;99.90;;;;;;5033808;28;20768;-63
2023/10/20 11:42:03;;;;;;;4.00;2.37;;;7.30;99.90;;;;;;5033798;28;20403;-63
2023/10/20 11:44:29;;;;;;;4.27;2.93;;;7.30;99.90;;;;;;5032094;28;20963;-78
2023/10/20 11:46:55;;;;;;;7.40;3.83;;;7.40;99.90;;;;;;5031479;28;20521;-63
2023/10/20 11:49:25;;;;;;;3.70;2.53;;;7.30;99.90;;;;;;5032390;28;20402;-64
2023/10/20 11:51:51;;;;;;;4.30;3.90;;;7.40;99.90;;;;;;5033481;28;20446;-63
2023/10/20 11:54:17;;;;;;;6.17;3.53;;;7.40;99.90;;;;;;5033625;28;20890;-64
2023/10/20 11:56:42;;;;;;;4.63;2.90;;;7.40;99.90;;;;;;5031602;28;20469;-63
2023/10/20 11:59:09;;;;;;;4.60;3.03;;;7.40;99.90;;;;;;5033345;28;20437;-64
2023/10/20 12:01:35;;;;;;;9.17;3.30;;;7.50;99.90;;;;;;5033335;28;20172;-64
2023/10/20 12:04:06;;;;;;;10.03;3.37;;;7.40;99.90;;;;;;5033303;28;20421;-63
2023/10/20 12:06:36;;;;;;;6.10;3.50;;;7.50;99.90;;;;;;5031738;28;20481;-64
2023/10/20 12:09:03;;;;;;;17.13;3.60;;;7.50;99.90;;;;;;5033373;28;20438;-68
2023/10/20 12:11:29;;;;;;;5.83;3.00;;;7.40;99.90;;;;;;5033231;28;20410;-65
2023/10/20 12:13:55;;;;;;;6.63;4.03;;;7.50;99.90;;;;;;5032105;28;20484;-64
2023/10/20 12:16:24;;;;;;;6.03;3.30;;;7.50;99.90;;;;;;5031013;28;20199;-66
2023/10/20 12:18:51;;;;;;;4.47;2.97;;;7.50;99.90;;;;;;5031981;28;20171;-63
2023/10/20 12:21:17;;;;;;;6.97;3.57;;;7.60;99.90;;;;;;5033173;28;20492;-63
2023/10/20 12:23:43;;;;;;;9.17;3.37;;;7.60;99.90;;;;;;5033105;28;20497;-64
2023/10/20 12:26:09;;;;;;;5.23;4.10;;;7.60;99.90;;;;;;5031496;28;20787;-63
2023/10/20 12:28:35;;;;;;;6.90;3.70;;;7.50;99.90;;;;;;5033011;28;20176;-63
2023/10/20 12:31:00;;;;;;;5.73;3.47;;;7.50;99.90;;;;;;5033085;28;20209;-65
2023/10/20 12:33:27;;;;;;;7.23;3.80;;;7.50;99.90;;;;;;5032902;28;20191;-63
2023/10/20 12:35:55;;;;;;;3.30;3.00;;;7.50;99.90;;;;;;5031981;28;20437;-64
2023/10/20 12:38:22;;;;;;;5.10;3.47;;;7.60;99.90;;;;;;5032941;28;20413;-65
2023/10/20 12:40:49;;;;;;;7.73;4.30;;;7.60;99.90;;;;;;5032838;28;20411;-63
2023/10/20 12:43:15;;;;;;;6.23;3.67;;;7.50;99.90;;;;;;5032520;28;20505;-65
2023/10/20 12:45:41;;;;;;;9.17;3.73;;;7.50;99.90;;;;;;5031759;28;20461;-64
2023/10/20 12:48:07;;;;;;;9.00;3.30;;;7.50;99.90;;;;;;5032731;28;20886;-63
2023/10/20 12:50:33;;;;;;;4.40;3.80;;;7.40;99.90;;;;;;5032886;28;20213;-63
2023/10/20 12:53:03;;;;;;;12.47;4.57;;;7.30;99.90;;;;;;5031631;28;20820;-63
2023/10/20 12:55:30;;;;;;;7.03;3.90;;;7.40;99.90;;;;;;5031850;28;20406;-63
2023/10/20 12:57:57;;;;;;;5.77;3.60;;;7.40;99.90;;;;;;5032674;28;20418;-64
2023/10/20 13:00:25;;;;;;;4.70;3.70;;;7.50;99.90;;;;;;5032344;28;20930;-66
2023/10/20 13:02:52;;;;;;;6.03;3.80;;;7.40;99.90;;;;;;5032462;28;20413;-63
2023/10/20 13:05:21;;;;;;;6.10;4.33;;;7.40;99.90;;;;;;5031704;28;20536;-63
2023/10/20 13:07:50;;;;;;;4.77;3.37;;;7.40;99.90;;;;;;5032544;28;20430;-64
2023/10/20 13:10:16;;;;;;;4.23;3.50;;;7.40;99.90;;;;;;5031350;28;20418;-64
2023/10/20 13:12:42;;;;;;;4.97;3.30;;;7.40;99.90;;;;;;5032683;28;20410;-64
2023/10/20 13:15:11;;;;;;;6.17;4.03;;;7.40;99.90;;;;;;5031605;28;21025;-64
2023/10/20 13:17:37;;;;;;;6.03;4.57;;;7.40;99.90;;;;;;5032577;28;20198;-63
2023/10/20 13:20:05;;;;;;;9.13;3.37;;;7.40;99.90;;;;;;5032393;28;20398;-63
2023/10/20 13:22:32;;;;;;;10.40;3.77;;;7.40;99.90;;;;;;5031957;28;20398;-65
2023/10/20 13:24:57;;;;;;;6.83;3.67;;;7.40;99.90;;;;;;5033034;28;20736;-63
2023/10/20 13:27:23;;;;;;;5.50;3.30;;;7.40;99.90;;;;;;5036190;28;20457;-63
2023/10/20 13:29:49;;;;;;;8.50;3.33;;;7.40;99.90;;;;;;5036208;28;20172;-65
2023/10/20 13:32:14;;;;;;;3.70;3.40;;;7.40;99.90;;;;;;5036308;28;20186;-65
2023/10/20 13:34:40;;;;;;;8.30;3.73;;;7.40;99.90;;;;;;5035170;28;20195;-63
2023/10/20 13:37:06;;;;;;;4.70;3.23;;;7.40;99.90;;;;;;5035946;28;20237;-65